Time;durP1;ratioP1;P1;durP2;ratioP2;P2;SDS_P1;SDS_P2;PMS_P1;PMS_P2;Temp;Humidity;BMP_temperature;BMP_pressure;BME280_temperature;BME280_humidity;BME280_pressure;Samples;Min_cycle;Max_cycle;Signal;HPM_P1;HPM_P2
2024/01/23 00:00:26;;;;;;;2.03;0.83;;;;;;;6.47;100.00;98690.84;5033230;28;20600;-72
2024/01/23 00:02:53;;;;;;;1.97;0.60;;;;;;;6.58;100.00;98693.88;5035608;28;20225;-72
2024/01/23 00:05:19;;;;;;;2.77;1.00;;;;;;;6.57;100.00;98697.53;5036842;28;20208;-72
2024/01/23 00:07:45;;;;;;;4.40;0.80;;;;;;;6.50;100.00;98701.03;5036402;28;20673;-72
2024/01/23 00:10:12;;;;;;;1.03;0.70;;;;;;;6.57;100.00;98716.03;5036343;28;20668;-72
2024/01/23 00:12:38;;;;;;;3.67;1.20;;;;;;;6.71;100.00;98706.50;5036560;28;20228;-72
2024/01/23 00:15:05;;;;;;;3.97;1.73;;;;;;;6.83;100.00;98702.44;5036611;28;20216;-72
2024/01/23 00:17:32;;;;;;;3.07;0.97;;;;;;;6.74;100.00;98716.72;5036562;28;20230;-72
2024/01/23 00:19:58;;;;;;;2.53;0.50;;;;;;;6.67;100.00;98705.19;5036509;28;20296;-72
2024/01/23 00:22:24;;;;;;;1.73;0.73;;;;;;;6.66;100.00;98717.56;5036388;28;20234;-72
2024/01/23 00:24:51;;;;;;;2.97;1.00;;;;;;;6.70;100.00;98710.13;5036296;28;20217;-72
2024/01/23 00:27:17;;;;;;;3.80;0.87;;;;;;;6.68;100.00;98707.66;5036349;28;20190;-72
2024/01/23 00:29:43;;;;;;;2.97;0.77;;;;;;;6.72;100.00;98695.75;5036392;28;20216;-72
2024/01/23 00:32:10;;;;;;;4.07;1.00;;;;;;;6.68;100.00;98698.91;5035892;28;20227;-72
2024/01/23 00:34:36;;;;;;;3.73;1.10;;;;;;;6.69;100.00;98695.28;5035913;28;20669;-72
2024/01/23 00:37:03;;;;;;;2.93;0.83;;;;;;;6.69;100.00;98700.56;5036108;28;20343;-72
2024/01/23 00:39:29;;;;;;;3.60;1.07;;;;;;;6.74;100.00;98698.22;5035823;28;20210;-72
2024/01/23 00:41:56;;;;;;;4.17;0.93;;;;;;;6.68;100.00;98696.25;5036034;28;20206;-72
2024/01/23 00:44:22;;;;;;;2.30;1.20;;;;;;;6.67;100.00;98702.56;5036027;28;20577;-72
2024/01/23 00:46:49;;;;;;;2.97;0.80;;;;;;;6.56;100.00;98700.34;5036050;28;20224;-72
2024/01/23 00:49:15;;;;;;;4.93;1.30;;;;;;;6.70;100.00;98703.00;5035985;28;20579;-72
2024/01/23 00:51:41;;;;;;;3.27;1.20;;;;;;;6.79;100.00;98698.50;5035917;28;20205;-72
2024/01/23 00:54:08;;;;;;;3.80;1.00;;;;;;;6.70;100.00;98692.44;5035798;28;20240;-72
2024/01/23 00:56:35;;;;;;;2.50;1.00;;;;;;;6.74;100.00;98711.44;5035719;28;20313;-72
2024/01/23 00:59:01;;;;;;;4.13;1.10;;;;;;;6.73;100.00;98701.84;5035770;28;20202;-72
2024/01/23 01:01:27;;;;;;;2.93;1.10;;;;;;;6.72;100.00;98708.13;5035334;28;20202;-72
2024/01/23 01:03:54;;;;;;;3.77;1.07;;;;;;;6.65;100.00;98715.94;5035619;28;20237;-73
2024/01/23 01:06:20;;;;;;;2.37;0.90;;;;;;;6.65;100.00;98712.50;5035695;28;20206;-73
2024/01/23 01:08:47;;;;;;;3.70;0.97;;;;;;;6.67;100.00;98715.75;5035643;28;20206;-72
2024/01/23 01:11:13;;;;;;;3.40;0.90;;;;;;;6.71;100.00;98719.69;5035564;28;20201;-72
2024/01/23 01:13:39;;;;;;;3.80;1.27;;;;;;;6.71;100.00;98724.97;5034230;28;20222;-72
2024/01/23 01:16:06;;;;;;;5.90;1.50;;;;;;;6.57;100.00;98736.34;5035332;28;20232;-72
2024/01/23 01:18:33;;;;;;;3.37;0.90;;;;;;;6.46;100.00;98726.16;5035460;28;20206;-73
2024/01/23 01:21:00;;;;;;;5.23;1.30;;;;;;;6.36;100.00;98733.50;5035418;28;20206;-72
2024/01/23 01:23:26;;;;;;;2.77;1.10;;;;;;;6.49;100.00;98734.56;5035314;28;20253;-72
2024/01/23 01:25:53;;;;;;;3.97;1.00;;;;;;;6.41;100.00;98732.00;5034873;28;20672;-72
2024/01/23 01:28:19;;;;;;;3.10;0.93;;;;;;;6.39;100.00;98725.25;5035208;28;20296;-72
2024/01/23 01:30:46;;;;;;;3.23;1.30;;;;;;;6.45;100.00;98729.81;5035272;28;20672;-72
2024/01/23 01:33:12;;;;;;;4.93;1.27;;;;;;;6.34;100.00;98740.78;5035151;28;20232;-72
2024/01/23 01:35:39;;;;;;;3.17;1.10;;;;;;;6.40;100.00;98737.44;5035143;28;20233;-72
2024/01/23 01:38:06;;;;;;;4.57;1.40;;;;;;;6.34;100.00;98746.06;5034659;28;20716;-72
2024/01/23 01:40:32;;;;;;;2.70;1.00;;;;;;;6.29;100.00;98754.50;5034940;28;20202;-72
2024/01/23 01:42:58;;;;;;;3.57;1.00;;;;;;;6.31;100.00;98768.38;5034560;28;20229;-72
2024/01/23 01:45:29;;;;;;;4.67;0.93;;;;;;;6.29;100.00;98775.63;5034598;28;20220;-72
2024/01/23 01:47:59;;;;;;;4.13;1.10;;;;;;;6.36;100.00;98788.97;5034496;28;20581;-72
2024/01/23 01:50:32;;;;;;;4.97;1.07;;;;;;;6.41;100.00;98787.44;5035259;28;20280;-72
2024/01/23 01:53:00;;;;;;;2.30;0.83;;;;;;;6.26;100.00;98769.88;5034419;28;20229;-72
2024/01/23 01:55:29;;;;;;;2.53;0.97;;;;;;;6.17;100.00;98771.78;5034429;28;20684;-73
2024/01/23 01:57:58;;;;;;;5.70;1.10;;;;;;;6.08;100.00;98767.53;5033160;28;20240;-73
2024/01/23 02:00:26;;;;;;;2.43;0.80;;;;;;;5.93;100.00;98776.34;5034348;28;20214;-73
2024/01/23 02:02:55;;;;;;;1.93;0.80;;;;;;;5.73;100.00;98767.16;5034478;28;20225;-73
2024/01/23 02:05:27;;;;;;;3.50;1.07;;;;;;;5.73;100.00;98762.72;5034228;28;20206;-72
2024/01/23 02:07:54;;;;;;;5.77;1.10;;;;;;;5.71;100.00;98769.16;5034053;28;20182;-72
2024/01/23 02:10:25;;;;;;;3.90;1.03;;;;;;;5.72;100.00;98768.16;5034161;28;20264;-72
2024/01/23 02:12:53;;;;;;;5.63;1.27;;;;;;;5.72;100.00;98760.22;5034411;28;20700;-72
2024/01/23 02:15:23;;;;;;;1.83;0.90;;;;;;;5.77;100.00;98774.56;5034025;28;20229;-72
2024/01/23 02:17:50;;;;;;;4.33;1.20;;;;;;;5.75;100.00;98775.72;5033876;28;20221;-72
2024/01/23 02:20:16;;;;;;;4.93;1.20;;;;;;;5.81;100.00;98777.72;5034242;28;20202;-72
2024/01/23 02:22:42;;;;;;;4.07;1.33;;;;;;;5.81;100.00;98780.34;5034298;28;20232;-72
2024/01/23 02:25:09;;;;;;;6.20;1.43;;;;;;;5.82;100.00;98781.97;5033731;28;20220;-72
2024/01/23 02:27:35;;;;;;;6.53;1.20;;;;;;;5.92;100.00;98782.63;5034106;28;20209;-72
2024/01/23 02:30:01;;;;;;;6.33;1.60;;;;;;;5.92;100.00;98790.53;5034098;28;20214;-72
2024/01/23 02:32:28;;;;;;;5.70;1.57;;;;;;;5.99;100.00;98799.41;5033638;28;20229;-72
2024/01/23 02:34:54;;;;;;;4.60;1.70;;;;;;;5.98;100.00;98788.00;5034043;28;20212;-72
2024/01/23 02:37:20;;;;;;;6.57;1.70;;;;;;;6.01;100.00;98786.88;5033909;28;20225;-72
2024/01/23 02:39:47;;;;;;;14.00;2.43;;;;;;;6.03;100.00;98793.63;5033970;28;20206;-72
2024/01/23 02:42:13;;;;;;;8.53;1.80;;;;;;;6.06;100.00;98784.53;5033822;28;20232;-72
2024/01/23 02:44:45;;;;;;;14.07;2.17;;;;;;;6.10;100.00;98793.75;5033627;28;20217;-72
2024/01/23 02:47:11;;;;;;;7.97;1.90;;;;;;;6.39;100.00;98793.91;5034417;28;20281;-72
2024/01/23 02:49:38;;;;;;;9.17;1.90;;;;;;;6.38;100.00;98779.06;5033528;28;20673;-72
2024/01/23 02:52:04;;;;;;;10.90;2.30;;;;;;;6.43;100.00;98787.28;5033743;28;20206;-72
2024/01/23 02:54:32;;;;;;;8.57;1.90;;;;;;;6.45;100.00;98786.09;5033781;28;20224;-72
2024/01/23 02:56:58;;;;;;;8.60;1.87;;;;;;;6.37;100.00;98785.31;5033404;28;20718;-72
2024/01/23 02:59:25;;;;;;;11.50;2.50;;;;;;;6.41;100.00;98808.59;5033682;28;20208;-72
2024/01/23 03:01:51;;;;;;;10.40;2.37;;;;;;;6.49;100.00;98813.00;5033611;28;20205;-72
2024/01/23 03:04:18;;;;;;;9.67;1.70;;;;;;;6.56;100.00;98812.09;5033693;28;20575;-72
2024/01/23 03:06:44;;;;;;;8.90;2.43;;;;;;;6.57;100.00;98820.88;5033550;28;20208;-72
2024/01/23 03:09:11;;;;;;;8.90;2.10;;;;;;;6.58;100.00;98818.06;5033192;28;20209;-72
2024/01/23 03:11:38;;;;;;;8.50;2.00;;;;;;;6.54;100.00;98803.53;5033225;28;20614;-72
2024/01/23 03:14:04;;;;;;;10.20;1.73;;;;;;;6.61;100.00;98806.31;5033190;28;20230;-72
2024/01/23 03:16:30;;;;;;;12.93;2.30;;;;;;;6.56;100.00;98806.03;5033272;28;20209;-72
2024/01/23 03:18:57;;;;;;;8.67;2.17;;;;;;;6.62;100.00;98805.31;5033365;28;20207;-72
2024/01/23 03:21:23;;;;;;;8.77;2.23;;;;;;;6.75;100.00;98808.19;5033206;28;20205;-72
2024/01/23 03:23:50;;;;;;;10.70;1.80;;;;;;;6.72;100.00;98813.81;5033613;28;20222;-72
2024/01/23 03:26:16;;;;;;;8.67;2.23;;;;;;;6.69;100.00;98815.00;5033054;28;20221;-72
2024/01/23 03:28:42;;;;;;;11.37;2.97;;;;;;;6.65;100.00;98824.25;5033032;28;20252;-72
2024/01/23 03:31:09;;;;;;;12.30;2.60;;;;;;;6.74;100.00;98828.50;5033025;28;20206;-72
2024/01/23 03:33:35;;;;;;;11.27;2.83;;;;;;;6.70;100.00;98821.91;5032959;28;20233;-72
2024/01/23 03:36:01;;;;;;;10.10;2.30;;;;;;;6.69;100.00;98819.47;5033385;28;20205;-72
2024/01/23 03:38:28;;;;;;;7.90;2.20;;;;;;;6.61;100.00;98835.38;5036783;28;20226;-72
2024/01/23 03:40:54;;;;;;;11.50;2.13;;;;;;;6.61;100.00;98830.09;5036915;28;20570;-72
2024/01/23 03:43:22;;;;;;;12.07;2.13;;;;;;;6.65;100.00;98834.03;5037111;28;20255;-72
2024/01/23 03:45:48;;;;;;;11.27;2.23;;;;;;;6.77;100.00;98838.72;5037129;28;20206;-72
2024/01/23 03:48:14;;;;;;;9.17;2.27;;;;;;;6.94;100.00;98840.25;5037139;28;20197;-72
2024/01/23 03:50:41;;;;;;;7.53;2.47;;;;;;;6.89;100.00;98847.91;5037034;28;20205;-72
2024/01/23 03:53:07;;;;;;;11.70;2.60;;;;;;;6.90;100.00;98867.22;5036812;28;20229;-72
2024/01/23 03:55:33;;;;;;;15.10;2.73;;;;;;;6.94;100.00;98857.94;5036882;28;20212;-72
2024/01/23 03:58:00;;;;;;;13.00;2.50;;;;;;;7.08;100.00;98852.69;5036664;28;20226;-72
2024/01/23 04:00:28;;;;;;;10.27;2.07;;;;;;;7.03;100.00;98855.06;5036864;28;20223;-72
2024/01/23 04:02:55;;;;;;;10.37;2.27;;;;;;;7.06;100.00;98864.47;5036490;28;20233;-72
2024/01/23 04:05:21;;;;;;;6.00;1.70;;;;;;;6.96;100.00;98854.09;5036521;28;20213;-72
2024/01/23 04:07:48;;;;;;;9.57;2.20;;;;;;;7.14;100.00;98859.09;5036472;28;20209;-72
2024/01/23 04:10:15;;;;;;;11.10;2.30;;;;;;;7.13;100.00;98860.09;5036125;28;20665;-72
2024/01/23 04:12:42;;;;;;;8.40;2.10;;;;;;;7.23;100.00;98865.94;5036475;28;20283;-72
2024/01/23 04:15:08;;;;;;;9.07;2.20;;;;;;;7.27;100.00;98857.50;5036379;28;20202;-72
2024/01/23 04:17:35;;;;;;;10.43;2.23;;;;;;;7.26;100.00;98862.97;5035903;28;20696;-72
2024/01/23 04:20:01;;;;;;;10.63;2.53;;;;;;;7.20;100.00;98867.13;5036154;28;20675;-72
2024/01/23 04:22:28;;;;;;;9.30;2.47;;;;;;;7.34;100.00;98862.91;5036359;28;20648;-72
2024/01/23 04:24:54;;;;;;;11.50;2.43;;;;;;;7.22;100.00;98859.84;5036137;28;20218;-72
2024/01/23 04:27:20;;;;;;;9.07;2.40;;;;;;;7.22;100.00;98853.72;5036280;28;20204;-72
2024/01/23 04:29:47;;;;;;;9.57;2.10;;;;;;;7.24;100.00;98851.75;5035972;28;20680;-72
2024/01/23 04:32:13;;;;;;;10.13;2.10;;;;;;;7.05;100.00;98847.75;5035715;28;20699;-72
2024/01/23 04:34:39;;;;;;;11.13;2.60;;;;;;;6.96;100.00;98863.84;5035632;28;20218;-72
2024/01/23 04:37:06;;;;;;;9.03;2.20;;;;;;;7.03;100.00;98872.72;5035623;28;20222;-73
2024/01/23 04:39:32;;;;;;;11.80;2.17;;;;;;;6.93;100.00;98888.00;5035556;28;20209;-73
2024/01/23 04:41:58;;;;;;;9.97;2.57;;;;;;;6.98;100.00;98896.22;5035678;28;20202;-73
2024/01/23 04:44:25;;;;;;;9.97;2.60;;;;;;;7.04;100.00;98904.28;5035656;28;20206;-72
2024/01/23 04:46:51;;;;;;;7.77;1.90;;;;;;;6.89;100.00;98902.56;5035777;28;20205;-72
2024/01/23 04:49:18;;;;;;;9.90;2.23;;;;;;;6.97;100.00;98907.81;5035571;28;20259;-72
2024/01/23 04:51:45;;;;;;;8.80;2.27;;;;;;;6.85;100.00;98896.00;5035395;28;20213;-72
2024/01/23 04:54:11;;;;;;;12.17;2.40;;;;;;;6.85;100.00;98893.34;5035322;28;20563;-72
2024/01/23 04:56:38;;;;;;;8.07;1.93;;;;;;;6.78;100.00;98903.78;5035494;28;20224;-72
2024/01/23 04:59:04;;;;;;;8.53;1.93;;;;;;;6.82;100.00;98909.53;5035523;28;20230;-72
2024/01/23 05:01:31;;;;;;;8.37;2.03;;;;;;;6.76;100.00;98904.97;5035272;28;20212;-72
2024/01/23 05:03:57;;;;;;;7.80;1.97;;;;;;;6.65;100.00;98908.00;5035446;28;20237;-72
2024/01/23 05:06:23;;;;;;;9.07;1.77;;;;;;;6.67;100.00;98901.56;5035263;28;20203;-72
2024/01/23 05:08:50;;;;;;;7.90;1.60;;;;;;;6.60;100.00;98913.00;5035256;28;20202;-72
2024/01/23 05:11:16;;;;;;;5.60;1.43;;;;;;;6.68;100.00;98926.13;5034877;28;20210;-72
2024/01/23 05:13:42;;;;;;;6.07;1.57;;;;;;;6.75;100.00;98932.38;5035194;28;20225;-72
2024/01/23 05:16:09;;;;;;;10.03;1.77;;;;;;;6.68;100.00;98934.06;5035011;28;20206;-72
2024/01/23 05:18:34;;;;;;;6.93;1.63;;;;;;;6.65;100.00;98952.94;5035203;28;20226;-72
2024/01/23 05:21:01;;;;;;;9.57;1.90;;;;;;;6.60;100.00;98948.16;5035066;28;20217;-72
2024/01/23 05:23:27;;;;;;;7.33;1.63;;;;;;;6.49;100.00;98968.84;5034737;28;20236;-72
2024/01/23 05:25:53;;;;;;;6.97;1.40;;;;;;;6.54;100.00;98992.91;5034621;28;20214;-72
2024/01/23 05:28:20;;;;;;;5.43;1.50;;;;;;;6.54;100.00;98992.91;5035483;28;20199;-72
2024/01/23 05:30:47;;;;;;;3.47;1.30;;;;;;;6.46;100.00;98996.41;5034899;28;20202;-72
2024/01/23 05:33:13;;;;;;;6.67;1.80;;;;;;;6.42;100.00;99010.16;5034685;28;20226;-72
2024/01/23 05:35:39;;;;;;;4.73;1.43;;;;;;;6.35;100.00;99006.53;5034514;28;20783;-72
2024/01/23 05:38:06;;;;;;;6.40;1.57;;;;;;;6.27;100.00;99012.66;5034835;28;20236;-73
2024/01/23 05:40:33;;;;;;;7.50;1.77;;;;;;;6.28;100.00;99010.81;5034752;28;20237;-72
2024/01/23 05:42:59;;;;;;;7.77;1.80;;;;;;;6.23;100.00;99021.06;5034441;28;20228;-72
2024/01/23 05:45:25;;;;;;;6.70;1.60;;;;;;;6.29;100.00;99023.06;5034321;28;20202;-73
2024/01/23 05:47:52;;;;;;;5.20;1.30;;;;;;;6.19;100.00;99025.06;5034597;28;20209;-72
2024/01/23 05:50:18;;;;;;;5.47;1.70;;;;;;;6.24;100.00;99033.28;5034433;28;20206;-72
2024/01/23 05:52:44;;;;;;;4.63;1.30;;;;;;;6.19;100.00;99043.53;5034412;28;20225;-72
2024/01/23 05:55:11;;;;;;;6.67;1.63;;;;;;;6.04;100.00;99029.34;5034056;28;20210;-72
2024/01/23 05:57:37;;;;;;;6.37;1.40;;;;;;;6.08;100.00;99043.88;5034390;28;20226;-73
2024/01/23 06:00:06;;;;;;;5.23;1.40;;;;;;;6.11;100.00;99057.53;5033655;28;20296;-72
2024/01/23 06:02:32;;;;;;;6.13;1.37;;;;;;;6.18;100.00;99052.44;5033563;28;20313;-72
2024/01/23 06:04:59;;;;;;;6.23;1.50;;;;;;;6.15;100.00;99066.78;5034115;28;20206;-73
2024/01/23 06:07:25;;;;;;;8.17;1.70;;;;;;;6.17;100.00;99075.38;5033218;28;20547;-73
2024/01/23 06:09:52;;;;;;;4.03;1.20;;;;;;;6.13;100.00;99071.41;5033815;28;20312;-72
2024/01/23 06:12:18;;;;;;;6.40;1.43;;;;;;;6.14;100.00;99082.78;5033936;28;20229;-72
2024/01/23 06:14:45;;;;;;;5.43;0.93;;;;;;;6.06;100.00;99096.00;5033426;28;20248;-73
2024/01/23 06:17:11;;;;;;;6.07;1.37;;;;;;;6.04;100.00;99096.19;5033812;28;20284;-72
2024/01/23 06:19:37;;;;;;;3.03;1.13;;;;;;;6.06;100.00;99098.66;5033732;28;20214;-72
2024/01/23 06:22:05;;;;;;;3.57;0.90;;;;;;;6.05;100.00;99105.75;5033471;28;20229;-72
2024/01/23 06:24:32;;;;;;;2.80;1.10;;;;;;;6.01;100.00;99106.25;5033178;28;20643;-73
2024/01/23 06:26:59;;;;;;;5.17;1.10;;;;;;;6.05;100.00;99118.94;5032617;28;20215;-73
2024/01/23 06:29:25;;;;;;;10.07;1.67;;;;;;;6.03;100.00;99128.84;5032983;28;20198;-73
2024/01/23 06:31:51;;;;;;;7.03;1.27;;;;;;;6.07;100.00;99142.53;5032613;28;20210;-73
2024/01/23 06:34:20;;;;;;;4.30;1.10;;;;;;;6.05;100.00;99136.56;5032854;28;20582;-72
2024/01/23 06:36:47;;;;;;;6.43;1.50;;;;;;;6.00;100.00;99147.63;5032144;28;20647;-72
2024/01/23 06:39:14;;;;;;;5.30;1.33;;;;;;;5.99;100.00;99150.44;5032635;28;20237;-72
2024/01/23 06:41:41;;;;;;;3.40;1.17;;;;;;;5.98;100.00;99162.81;5032605;28;20205;-73
2024/01/23 06:44:07;;;;;;;3.67;1.10;;;;;;;6.02;100.00;99174.69;5032027;28;20233;-72
2024/01/23 06:46:33;;;;;;;6.53;1.70;;;;;;;5.98;100.00;99185.75;5031901;28;20691;-72
2024/01/23 06:49:00;;;;;;;5.57;1.20;;;;;;;5.94;100.00;99176.50;5032098;28;20539;-72
2024/01/23 06:51:28;;;;;;;5.03;1.20;;;;;;;5.87;100.00;99180.75;5032675;28;20297;-72
2024/01/23 06:53:55;;;;;;;4.40;1.30;;;;;;;5.77;100.00;99194.09;5033407;28;20237;-73
2024/01/23 06:56:21;;;;;;;5.53;1.23;;;;;;;5.79;100.00;99200.00;5032408;28;20216;-73
2024/01/23 06:58:47;;;;;;;4.27;1.33;;;;;;;5.70;100.00;99202.81;5032108;28;20230;-72
2024/01/23 07:01:14;;;;;;;4.17;1.20;;;;;;;5.70;100.00;99213.38;5032398;28;20206;-73
2024/01/23 07:03:40;;;;;;;4.93;1.20;;;;;;;5.67;100.00;99216.31;5032201;28;20274;-73
2024/01/23 07:06:07;;;;;;;4.67;1.17;;;;;;;5.66;100.00;99218.09;5032003;28;20206;-73
2024/01/23 07:08:33;;;;;;;4.97;1.40;;;;;;;5.66;100.00;99227.84;5031648;28;20216;-73
2024/01/23 07:10:59;;;;;;;5.33;1.13;;;;;;;5.59;100.00;99229.47;5030323;28;20210;-73
2024/01/23 07:13:26;;;;;;;4.07;1.00;;;;;;;5.67;100.00;99242.69;5031682;28;20234;-72
2024/01/23 07:15:52;;;;;;;5.10;1.20;;;;;;;5.65;100.00;99234.13;5031907;28;20216;-72
2024/01/23 07:18:18;;;;;;;6.53;1.33;;;;;;;5.72;100.00;99245.69;5031968;28;20225;-72
2024/01/23 07:20:45;;;;;;;5.17;1.57;;;;;;;5.63;100.00;99249.25;5031408;28;20256;-72
2024/01/23 07:23:12;;;;;;;6.93;1.50;;;;;;;5.63;100.00;99249.25;5031658;28;20232;-72
2024/01/23 07:25:38;;;;;;;4.37;1.40;;;;;;;5.61;100.00;99243.34;4993918;28;1095910;-72
2024/01/23 07:28:05;;;;;;;7.37;1.60;;;;;;;5.53;100.00;99261.75;5032261;28;20552;-72
2024/01/23 07:30:31;;;;;;;5.33;1.40;;;;;;;5.66;100.00;99255.03;5032536;28;20202;-72
2024/01/23 07:32:57;;;;;;;6.00;1.50;;;;;;;5.74;100.00;99257.72;5031967;28;20232;-72
2024/01/23 07:35:24;;;;;;;4.10;1.40;;;;;;;5.76;100.00;99260.22;5032665;28;20206;-72
2024/01/23 07:37:51;;;;;;;6.43;1.60;;;;;;;5.81;100.00;99260.59;5033207;28;20680;-72
2024/01/23 07:40:17;;;;;;;6.83;1.47;;;;;;;5.83;100.00;99259.44;5032863;28;20212;-72
2024/01/23 07:42:43;;;;;;;5.30;1.50;;;;;;;5.79;100.00;99268.63;5032322;28;20222;-72
2024/01/23 07:45:11;;;;;;;7.10;1.47;;;;;;;5.72;100.00;99274.69;5033149;28;20210;-72
2024/01/23 07:47:37;;;;;;;4.27;1.80;;;;;;;5.70;100.00;99276.69;5032541;28;20225;-72
2024/01/23 07:50:07;;;;;;;8.37;1.90;;;;;;;5.73;100.00;99285.09;5032486;28;20206;-72
2024/01/23 07:52:34;;;;;;;6.10;2.20;;;;;;;5.68;100.00;99283.91;5032460;28;20226;-72
2024/01/23 07:55:00;;;;;;;7.77;1.93;;;;;;;5.76;100.00;99299.78;5032384;28;20202;-72
2024/01/23 07:57:27;;;;;;;7.73;1.70;;;;;;;5.72;100.00;99299.28;5032462;28;20212;-72
2024/01/23 07:59:53;;;;;;;5.50;1.80;;;;;;;5.67;100.00;99309.50;5031759;28;20222;-72
2024/01/23 08:02:19;;;;;;;6.00;1.80;;;;;;;5.64;100.00;99309.78;5032107;28;20232;-72
2024/01/23 08:04:46;;;;;;;7.37;1.77;;;;;;;5.63;100.00;99310.78;5032327;28;20202;-72
2024/01/23 08:07:12;;;;;;;9.00;1.90;;;;;;;5.70;100.00;99316.25;5032504;28;20213;-72
2024/01/23 08:09:38;;;;;;;5.73;1.83;;;;;;;5.64;100.00;99322.16;5032899;28;20208;-72
2024/01/23 08:12:06;;;;;;;7.47;1.70;;;;;;;5.60;100.00;99323.44;5032045;28;20206;-72
2024/01/23 08:14:32;;;;;;;8.37;2.00;;;;;;;5.57;100.00;99326.41;5032293;28;20232;-72
2024/01/23 08:17:00;;;;;;;10.40;1.90;;;;;;;5.53;100.00;99332.97;5032990;28;20206;-72
2024/01/23 08:19:26;;;;;;;6.87;1.80;;;;;;;5.51;100.00;99338.41;5032249;28;20229;-72
2024/01/23 08:21:52;;;;;;;9.40;2.00;;;;;;;5.56;100.00;99343.22;5032388;28;20202;-72
2024/01/23 08:24:19;;;;;;;5.40;2.03;;;;;;;5.57;100.00;99343.03;5035943;28;20217;-72
2024/01/23 08:26:47;;;;;;;7.90;1.83;;;;;;;5.67;100.00;99348.22;5035995;28;20205;-73
2024/01/23 08:29:13;;;;;;;7.40;1.73;;;;;;;5.70;100.00;99353.19;5035641;28;20205;-72
2024/01/23 08:31:40;;;;;;;7.00;1.60;;;;;;;5.69;100.00;99346.25;5035483;28;20581;-72
2024/01/23 08:34:06;;;;;;;8.23;2.03;;;;;;;5.69;100.00;99344.44;5035664;28;20587;-72
2024/01/23 08:36:32;;;;;;;8.03;1.80;;;;;;;5.70;100.00;99345.28;5035520;28;20573;-72
2024/01/23 08:38:59;;;;;;;6.27;1.87;;;;;;;5.70;100.00;99337.38;5035254;28;20738;-72
2024/01/23 08:41:25;;;;;;;7.70;1.73;;;;;;;5.73;100.00;99345.78;5035510;28;20565;-72
2024/01/23 08:43:51;;;;;;;6.07;1.80;;;;;;;5.74;100.00;99338.72;5035145;28;20736;-72
2024/01/23 08:46:18;;;;;;;5.50;1.67;;;;;;;5.82;100.00;99347.50;5035372;28;20684;-72
2024/01/23 08:48:44;;;;;;;6.87;1.50;;;;;;;5.82;100.00;99346.69;5035356;28;20202;-72
2024/01/23 08:51:10;;;;;;;7.00;1.53;;;;;;;5.88;100.00;99361.91;5035511;28;20573;-72
2024/01/23 08:53:37;;;;;;;8.60;1.70;;;;;;;6.16;100.00;99355.41;5035408;28;20232;-74
2024/01/23 08:56:04;;;;;;;6.53;1.93;;;;;;;6.32;100.00;99360.75;5035548;28;20206;-72
2024/01/23 08:58:30;;;;;;;8.20;2.00;;;;;;;6.46;100.00;99368.03;5035240;28;20228;-73
2024/01/23 09:00:57;;;;;;;5.33;1.40;;;;;;;6.49;100.00;99371.22;5035497;28;20267;-74
2024/01/23 09:03:23;;;;;;;4.23;1.27;;;;;;;6.52;100.00;99372.69;5035618;28;20230;-72
2024/01/23 09:05:50;;;;;;;4.17;1.30;;;;;;;6.56;100.00;99379.31;5035444;28;20208;-73
2024/01/23 09:08:17;;;;;;;6.77;1.30;;;;;;;6.54;100.00;99384.75;5035170;28;20202;-73
2024/01/23 09:10:43;;;;;;;4.17;1.10;;;;;;;6.57;100.00;99384.44;5035076;28;20209;-73
2024/01/23 09:13:10;;;;;;;4.53;1.30;;;;;;;6.89;100.00;99384.50;5035094;28;20308;-72
2024/01/23 09:15:36;;;;;;;4.53;1.40;;;;;;;7.10;100.00;99391.97;5035214;28;20206;-72
2024/01/23 09:18:04;;;;;;;7.30;1.47;;;;;;;7.13;100.00;99404.84;5035507;28;20206;-73
2024/01/23 09:20:30;;;;;;;5.23;1.50;;;;;;;7.20;100.00;99393.41;5035090;28;20213;-73
2024/01/23 09:22:57;;;;;;;3.47;1.00;;;;;;;7.12;100.00;99392.59;5035063;28;20281;-73
2024/01/23 09:25:23;;;;;;;6.27;1.37;;;;;;;7.16;100.00;99404.50;5034665;28;20670;-73
2024/01/23 09:27:50;;;;;;;4.80;1.10;;;;;;;7.21;100.00;99418.06;5034987;28;20245;-73
2024/01/23 09:30:16;;;;;;;4.47;1.00;;;;;;;7.06;100.00;99427.66;5034987;28;20204;-73
2024/01/23 09:32:43;;;;;;;5.70;1.30;;;;;;;7.11;100.00;99422.69;5034952;28;20226;-72
2024/01/23 09:35:13;;;;;;;4.93;1.27;;;;;;;7.23;100.00;99427.50;5033732;28;20206;-72
2024/01/23 09:37:39;;;;;;;5.90;1.03;;;;;;;7.17;100.00;99438.75;5034738;28;20218;-72
2024/01/23 09:40:08;;;;;;;5.00;1.40;;;;;;;7.10;100.00;99442.19;5034551;28;20226;-72
2024/01/23 09:42:38;;;;;;;3.63;1.13;;;;;;;6.96;100.00;99450.75;5034533;28;20230;-73
2024/01/23 09:45:09;;;;;;;6.20;1.20;;;;;;;6.93;100.00;99449.25;5034289;28;20228;-73
2024/01/23 09:47:36;;;;;;;5.00;1.27;;;;;;;6.95;100.00;99455.22;5034490;28;20190;-73
2024/01/23 09:50:03;;;;;;;3.17;0.87;;;;;;;6.98;100.00;99454.91;5034618;28;20227;-72
2024/01/23 09:52:32;;;;;;;5.00;1.17;;;;;;;6.95;100.00;99459.66;5035356;28;20235;-72
2024/01/23 09:54:58;;;;;;;3.87;1.00;;;;;;;7.03;100.00;99463.19;5034345;28;20203;-72
2024/01/23 09:57:26;;;;;;;2.17;0.90;;;;;;;7.18;100.00;99453.59;5033940;28;20243;-72
2024/01/23 09:59:53;;;;;;;3.83;1.10;;;;;;;7.29;100.00;99455.13;5034185;28;20321;-73
2024/01/23 10:02:20;;;;;;;2.17;0.90;;;;;;;7.29;100.00;99463.03;5033786;28;20241;-72
2024/01/23 10:04:48;;;;;;;3.57;1.17;;;;;;;7.29;100.00;99463.84;5033116;28;20202;-72
2024/01/23 10:07:15;;;;;;;3.10;0.80;;;;;;;7.31;100.00;99458.41;5033574;28;20564;-72
2024/01/23 10:09:48;;;;;;;2.27;0.70;;;;;;;7.35;100.00;99457.09;5033873;28;20565;-72
2024/01/23 10:12:15;;;;;;;3.33;1.20;;;;;;;7.28;100.00;99464.03;5034120;28;20308;-72
2024/01/23 10:14:44;;;;;;;4.53;1.13;;;;;;;7.29;100.00;99457.75;5033876;28;20213;-72
2024/01/23 10:17:11;;;;;;;3.83;0.90;;;;;;;7.24;100.00;99454.78;5034001;28;20255;-72
2024/01/23 10:19:38;;;;;;;3.20;0.83;;;;;;;7.24;100.00;99460.06;5033822;28;20241;-72
2024/01/23 10:22:05;;;;;;;3.17;1.10;;;;;;;7.36;100.00;99461.38;5033741;28;20211;-72
2024/01/23 10:24:31;;;;;;;4.47;1.10;;;;;;;7.38;100.00;99464.72;5033457;28;20201;-72
2024/01/23 10:26:57;;;;;;;4.83;1.10;;;;;;;7.48;100.00;99473.31;5033576;28;20201;-72
2024/01/23 10:29:24;;;;;;;3.10;0.80;;;;;;;7.51;100.00;99468.50;5033271;28;20199;-72
2024/01/23 10:31:50;;;;;;;3.63;1.00;;;;;;;7.65;100.00;99475.78;5033581;28;20214;-72
2024/01/23 10:34:16;;;;;;;3.77;1.10;;;;;;;7.97;100.00;99467.00;5033355;28;20672;-72
2024/01/23 10:36:43;;;;;;;3.90;1.10;;;;;;;7.93;100.00;99470.97;5033424;28;20203;-72
2024/01/23 10:39:11;;;;;;;6.00;1.13;;;;;;;7.87;100.00;99463.69;5032814;28;20226;-72
2024/01/23 10:41:38;;;;;;;4.10;1.30;;;;;;;7.86;100.00;99460.22;5033475;28;20210;-72
2024/01/23 10:44:06;;;;;;;5.43;1.43;;;;;;;7.79;100.00;99461.06;5033345;28;20222;-72
2024/01/23 10:46:34;;;;;;;5.10;1.40;;;;;;;7.67;100.00;99462.38;5032699;28;20206;-72
2024/01/23 10:49:02;;;;;;;5.27;1.30;;;;;;;7.64;100.00;99457.44;5033140;28;20206;-72
2024/01/23 10:51:31;;;;;;;5.50;1.73;;;;;;;7.64;100.00;99450.31;5033218;28;20210;-72
2024/01/23 10:54:08;;;;;;;3.57;1.30;;;;;;;7.55;100.00;99459.25;5033026;28;20827;-72
2024/01/23 10:56:45;;;;;;;3.33;1.17;;;;;;;7.64;100.00;99460.09;5033225;28;20186;-73
2024/01/23 10:59:18;;;;;;;5.23;1.60;;;;;;;7.85;100.00;99455.91;5033238;28;20210;-73
2024/01/23 11:01:45;;;;;;;5.97;1.67;;;;;;;7.96;100.00;99449.47;5033230;28;20216;-73
2024/01/23 11:04:15;;;;;;;5.37;1.73;;;;;;;8.04;100.00;99454.72;5033038;28;20210;-73
2024/01/23 11:06:53;;;;;;;6.53;1.70;;;;;;;8.14;100.00;99447.44;5033211;28;20596;-73
2024/01/23 11:09:34;;;;;;;6.97;1.90;;;;;;;8.12;100.00;99454.69;5033203;28;20190;-73
2024/01/23 11:12:13;;;;;;;10.70;1.80;;;;;;;8.20;100.00;99454.69;5033237;28;20198;-73
2024/01/23 11:14:47;;;;;;;11.03;2.33;;;;;;;8.14;100.00;99450.88;5032705;28;20190;-72
2024/01/23 11:17:14;;;;;;;7.90;2.37;;;;;;;8.08;100.00;99448.09;5030987;28;20190;-73
2024/01/23 11:19:46;;;;;;;9.73;2.47;;;;;;;8.12;100.00;99452.88;5032396;28;20268;-73
2024/01/23 11:22:13;;;;;;;5.73;2.00;;;;;;;7.92;100.00;99440.19;5032672;28;20222;-72
2024/01/23 11:24:41;;;;;;;7.27;1.93;;;;;;;7.80;100.00;99449.47;5032529;28;20201;-72
2024/01/23 11:27:07;;;;;;;8.10;2.20;;;;;;;7.82;100.00;99450.94;5032310;28;20221;-72
2024/01/23 11:29:35;;;;;;;9.90;2.33;;;;;;;7.75;100.00;99454.44;5032423;28;20215;-72